Time;durP1;ratioP1;P1;durP2;ratioP2;P2;SDS_P1;SDS_P2;PMS_P1;PMS_P2;Temp;Humidity;BMP_temperature;BMP_pressure;BME280_temperature;BME280_humidity;BME280_pressure;Samples;Min_cycle;Max_cycle;Signal;HPM_P1;HPM_P2
2023/03/08 00:00:17;;;;;;;30.80;17.97;;;;;1.70;99511.00;;;;9642258;30;20717;-79
2023/03/08 00:05:19;;;;;;;32.43;18.17;;;;;1.70;99503.00;;;;9655238;30;20219;-79
2023/03/08 00:10:22;;;;;;;35.40;20.97;;;;;1.80;99496.00;;;;9659769;30;20657;-79
2023/03/08 00:15:24;;;;;;;40.87;22.07;;;;;1.70;99487.00;;;;9691700;30;20295;-79
2023/03/08 00:20:26;;;;;;;33.13;20.87;;;;;1.80;99493.00;;;;9643533;30;20259;-79
2023/03/08 00:25:28;;;;;;;30.87;18.37;;;;;1.80;99478.00;;;;9613503;30;20209;-79
2023/03/08 00:30:30;;;;;;;32.77;20.07;;;;;1.80;99488.00;;;;9622997;30;20343;-79
2023/03/08 00:35:31;;;;;;;37.30;21.30;;;;;1.80;99490.00;;;;9641013;30;20212;-79
2023/03/08 00:40:33;;;;;;;37.47;21.23;;;;;1.80;99477.00;;;;9632533;30;20225;-79
2023/03/08 00:45:37;;;;;;;33.10;19.83;;;;;1.80;99469.00;;;;9605602;30;20260;-79
2023/03/08 00:50:39;;;;;;;34.80;18.77;;;;;1.70;99471.00;;;;9613548;30;20227;-79
2023/03/08 00:55:49;;;;;;;35.53;19.73;;;;;1.70;99464.00;;;;9654799;30;20677;-79
2023/03/08 01:00:51;;;;;;;31.60;18.13;;;;;1.70;99444.00;;;;9653680;30;20236;-79
2023/03/08 01:05:55;;;;;;;34.27;20.00;;;;;1.70;99448.00;;;;9654069;30;20754;-79
2023/03/08 01:10:59;;;;;;;33.37;19.20;;;;;1.70;99434.00;;;;9653349;30;20208;-79
2023/03/08 01:16:01;;;;;;;35.23;19.97;;;;;1.70;99412.00;;;;9637146;30;20674;-79
2023/03/08 01:21:03;;;;;;;33.73;18.67;;;;;1.70;99410.00;;;;9625524;30;20731;-78
2023/03/08 01:26:10;;;;;;;29.80;17.00;;;;;1.70;99397.00;;;;9638372;30;20204;-79
2023/03/08 01:31:14;;;;;;;28.50;16.73;;;;;1.70;99398.00;;;;9656088;30;20259;-79
2023/03/08 01:36:19;;;;;;;27.57;15.13;;;;;1.70;99396.00;;;;9638827;30;20310;-79
2023/03/08 01:41:24;;;;;;;32.97;15.83;;;;;1.70;99387.00;;;;9638201;30;20308;-79
2023/03/08 01:46:30;;;;;;;25.37;14.77;;;;;1.70;99361.00;;;;9638745;30;20205;-79
2023/03/08 01:52:03;;;;;;;27.50;15.93;;;;;1.70;99362.00;;;;9618522;30;20299;-80
2023/03/08 01:57:16;;;;;;;25.97;16.17;;;;;1.70;99352.00;;;;9639234;30;20291;-79
2023/03/08 02:09:08;;;;;;;28.50;15.57;;;;;1.70;99313.00;;;;10742543;24;20256;-79
2023/03/08 02:14:11;;;;;;;28.50;16.23;;;;;1.70;99299.00;;;;9729737;30;20202;-79
2023/03/08 02:19:25;;;;;;;29.10;17.47;;;;;1.70;99310.00;;;;9724856;30;20214;-78
2023/03/08 02:24:27;;;;;;;30.60;17.90;;;;;1.70;99295.00;;;;9724500;30;20217;-78
2023/03/08 02:29:29;;;;;;;36.23;20.43;;;;;1.70;99280.00;;;;9710503;30;20203;-78
2023/03/08 02:34:31;;;;;;;32.97;18.50;;;;;1.70;99270.00;;;;9728389;30;20847;-78
2023/03/08 02:39:33;;;;;;;34.93;18.67;;;;;1.70;99270.00;;;;9709632;30;20218;-77
2023/03/08 02:44:35;;;;;;;35.13;16.97;;;;;1.70;99268.00;;;;9724861;30;20579;-78
2023/03/08 02:49:37;;;;;;;26.67;14.80;;;;;1.60;99264.00;;;;9739542;30;20257;-78
2023/03/08 02:54:39;;;;;;;24.57;13.73;;;;;1.60;99255.00;;;;9708321;30;20194;-77
2023/03/08 02:59:41;;;;;;;21.87;12.37;;;;;1.50;99235.00;;;;9715403;30;20871;-78
2023/03/08 03:04:44;;;;;;;17.63;10.50;;;;;1.40;99236.00;;;;9728532;30;20210;-78
2023/03/08 03:09:46;;;;;;;19.10;11.07;;;;;1.30;99222.00;;;;9672713;30;1105010;-77
2023/03/08 03:14:49;;;;;;;22.63;12.07;;;;;1.20;99207.00;;;;9695433;30;20723;-77
2023/03/08 03:19:51;;;;;;;21.83;10.90;;;;;1.00;99203.00;;;;9681508;30;20534;-78
2023/03/08 03:24:53;;;;;;;19.50;11.30;;;;;0.90;99205.00;;;;9695595;30;20207;-78
2023/03/08 03:29:55;;;;;;;22.90;12.83;;;;;0.80;99200.00;;;;9682802;30;20191;-78
2023/03/08 03:34:58;;;;;;;21.70;11.77;;;;;0.70;99191.00;;;;9710791;30;20207;-78
2023/03/08 03:40:03;;;;;;;20.20;10.73;;;;;0.60;99169.00;;;;9682220;30;20322;-79
2023/03/08 03:45:05;;;;;;;22.73;11.63;;;;;0.60;99147.00;;;;9695199;30;20203;-78
2023/03/08 03:50:09;;;;;;;19.73;10.50;;;;;0.50;99139.00;;;;9695458;30;20241;-78
2023/03/08 03:55:20;;;;;;;19.37;11.07;;;;;0.50;99130.00;;;;9681633;30;20211;-78
2023/03/08 04:00:22;;;;;;;22.53;11.70;;;;;0.40;99130.00;;;;9679564;30;20219;-78
2023/03/08 04:05:44;;;;;;;23.70;11.93;;;;;0.40;99113.00;;;;9694260;30;20238;-78
2023/03/08 04:10:46;;;;;;;23.07;12.37;;;;;0.40;99092.00;;;;9692466;30;20295;-78
2023/03/08 04:15:49;;;;;;;26.00;13.50;;;;;0.40;99075.00;;;;9736029;30;20205;-78
2023/03/08 04:20:51;;;;;;;26.20;12.90;;;;;0.30;99070.00;;;;9692163;30;20219;-78
2023/03/08 04:25:53;;;;;;;24.80;13.70;;;;;0.30;99069.00;;;;9660520;30;20223;-78
2023/03/08 04:30:56;;;;;;;21.70;11.73;;;;;0.30;99067.00;;;;9691708;30;20567;-78
2023/03/08 04:35:58;;;;;;;18.47;10.23;;;;;0.30;99067.00;;;;9682099;30;20211;-78
2023/03/08 04:41:04;;;;;;;16.43;8.50;;;;;0.30;99051.00;;;;9684608;30;20224;-77
2023/03/08 04:46:16;;;;;;;19.53;8.77;;;;;0.30;99041.00;;;;9702965;30;20213;-79
2023/03/08 04:51:19;;;;;;;14.47;7.37;;;;;0.30;99029.00;;;;9707126;30;20203;-78
2023/03/08 04:56:22;;;;;;;10.47;6.27;;;;;0.20;99021.00;;;;9695724;30;20211;-79
2023/03/08 05:01:25;;;;;;;14.90;6.93;;;;;0.20;99000.00;;;;9698630;30;20234;-78
2023/03/08 05:06:28;;;;;;;12.40;6.80;;;;;0.20;98996.00;;;;9684931;30;20727;-79
2023/03/08 05:11:31;;;;;;;9.97;6.20;;;;;0.20;98982.00;;;;9698776;30;20238;-80
2023/03/08 05:16:34;;;;;;;12.73;6.70;;;;;0.20;98968.00;;;;9649533;30;20295;-78
2023/03/08 05:21:37;;;;;;;11.33;6.43;;;;;0.20;98936.00;;;;9709220;30;20801;-78
2023/03/08 05:26:39;;;;;;;10.47;6.33;;;;;0.20;98925.00;;;;9710739;30;20667;-79
2023/03/08 05:31:44;;;;;;;11.63;8.17;;;;;0.20;98909.00;;;;9697149;30;20200;-79
2023/03/08 05:36:48;;;;;;;10.63;6.30;;;;;0.20;98907.00;;;;9699138;30;20230;-79
2023/03/08 05:41:50;;;;;;;10.60;6.50;;;;;0.20;98881.00;;;;9687880;30;20293;-78
2023/03/08 05:46:59;;;;;;;10.87;7.03;;;;;0.20;98871.00;;;;9676315;30;20679;-78
2023/03/08 05:52:03;;;;;;;10.83;7.37;;;;;0.20;98868.00;;;;9686208;30;20203;-80
2023/03/08 05:57:05;;;;;;;12.80;7.63;;;;;0.20;98860.00;;;;9697068;30;20211;-79
2023/03/08 06:02:08;;;;;;;15.67;9.13;;;;;0.20;98847.00;;;;9694095;30;20270;-79
2023/03/08 06:07:14;;;;;;;15.17;8.70;;;;;0.20;98854.00;;;;9708270;30;20314;-79
2023/03/08 06:12:21;;;;;;;17.57;10.10;;;;;0.20;98854.00;;;;9707964;30;20722;-79
2023/03/08 06:17:27;;;;;;;17.73;10.77;;;;;0.20;98860.00;;;;9685781;30;20730;-79
2023/03/08 06:22:31;;;;;;;17.33;10.03;;;;;0.20;98858.00;;;;9723393;30;20219;-79
2023/03/08 06:27:34;;;;;;;19.03;10.70;;;;;0.20;98849.00;;;;9700326;30;20306;-79
2023/03/08 06:32:42;;;;;;;18.13;9.53;;;;;0.20;98843.00;;;;9686787;30;20203;-79
2023/03/08 06:37:44;;;;;;;16.20;9.93;;;;;0.20;98825.00;;;;9678585;30;20234;-80
2023/03/08 06:42:46;;;;;;;17.10;10.73;;;;;0.20;98819.00;;;;9691496;30;20219;-80
2023/03/08 06:47:49;;;;;;;16.50;10.50;;;;;0.20;98821.00;;;;9676205;30;20630;-79
2023/03/08 06:52:53;;;;;;;18.57;9.00;;;;;0.20;98799.00;;;;9662876;30;20213;-79
2023/03/08 06:58:05;;;;;;;17.23;10.20;;;;;0.20;98776.00;;;;9677937;30;20290;-79
2023/03/08 07:03:09;;;;;;;18.23;11.00;;;;;0.30;98763.00;;;;9689334;30;20323;-79
2023/03/08 07:08:10;;;;;;;17.17;10.63;;;;;0.40;98758.00;;;;9676101;30;20738;-78
2023/03/08 07:13:13;;;;;;;17.70;11.13;;;;;0.50;98757.00;;;;9690506;30;20207;-78
2023/03/08 07:18:14;;;;;;;17.40;10.57;;;;;0.40;98754.00;;;;9696097;30;20286;-78
2023/03/08 07:23:17;;;;;;;17.97;10.03;;;;;0.40;98746.00;;;;9689315;30;20215;-79
2023/03/08 07:28:19;;;;;;;19.23;10.27;;;;;0.50;98744.00;;;;9675167;30;20584;-79
2023/03/08 07:33:21;;;;;;;15.83;9.30;;;;;0.50;98725.00;;;;9661822;30;20258;-78
2023/03/08 07:38:23;;;;;;;14.20;8.50;;;;;0.60;98728.00;;;;9674242;30;20266;-78
2023/03/08 07:43:25;;;;;;;14.77;8.87;;;;;0.60;98713.00;;;;9694880;30;20230;-79
2023/03/08 07:48:31;;;;;;;15.97;10.03;;;;;0.70;98701.00;;;;9681381;30;20211;-78
2023/03/08 07:53:34;;;;;;;14.30;8.70;;;;;0.80;98701.00;;;;9681609;30;20202;-77
2023/03/08 07:58:36;;;;;;;14.87;8.80;;;;;1.00;98707.00;;;;9694428;30;20262;-79
2023/03/08 08:03:39;;;;;;;12.73;8.07;;;;;1.10;98708.00;;;;9684105;30;20222;-78
2023/03/08 08:08:42;;;;;;;15.83;8.70;;;;;1.20;98720.00;;;;9696149;30;20766;-78
2023/03/08 08:13:45;;;;;;;10.73;7.20;;;;;1.10;98705.00;;;;9694161;30;20629;-77
2023/03/08 08:18:47;;;;;;;13.30;7.83;;;;;1.00;98701.00;;;;9706097;30;20199;-79
2023/03/08 08:23:49;;;;;;;11.77;7.87;;;;;1.00;98703.00;;;;9683457;30;20239;-78
2023/03/08 08:28:53;;;;;;;10.93;7.30;;;;;1.20;98702.00;;;;9696947;30;20211;-78
2023/03/08 08:33:55;;;;;;;9.93;6.43;;;;;1.10;98704.00;;;;9697867;30;20302;-79
2023/03/08 08:38:57;;;;;;;10.90;6.77;;;;;1.00;98698.00;;;;9694946;30;20656;-80
2023/03/08 08:43:59;;;;;;;8.90;6.07;;;;;1.20;98698.00;;;;9660531;30;20325;-79
2023/03/08 08:49:01;;;;;;;10.63;6.87;;;;;1.40;98688.00;;;;9692732;30;20212;-78
2023/03/08 08:54:03;;;;;;;9.80;6.67;;;;;1.50;98664.00;;;;9694556;30;20841;-78
2023/03/08 08:59:05;;;;;;;10.37;6.30;;;;;1.90;98662.00;;;;9678177;30;20879;-80
2023/03/08 09:04:12;;;;;;;10.03;6.47;;;;;2.20;98662.00;;;;9710795;30;20595;-79
2023/03/08 09:09:15;;;;;;;13.43;7.20;;;;;2.30;98664.00;;;;9699882;30;20348;-79
2023/03/08 09:14:17;;;;;;;9.77;6.63;;;;;2.50;98632.00;;;;9694095;30;20227;-80
2023/03/08 09:19:19;;;;;;;11.73;7.57;;;;;2.60;98638.00;;;;9700205;30;20211;-78
2023/03/08 09:24:21;;;;;;;10.83;7.80;;;;;2.60;98628.00;;;;9715278;30;20222;-79
2023/03/08 09:29:23;;;;;;;10.37;7.30;;;;;2.60;98653.00;;;;9700957;30;20673;-79
2023/03/08 09:34:26;;;;;;;9.77;7.07;;;;;2.20;98658.00;;;;9710162;30;20249;-79
2023/03/08 09:39:28;;;;;;;9.97;7.27;;;;;2.20;98637.00;;;;9694822;30;20205;-79
2023/03/08 09:45:17;;;;;;;9.83;6.90;;;;;2.50;98642.00;;;;9686724;30;20235;-79
2023/03/08 09:50:24;;;;;;;11.03;7.17;;;;;2.40;98622.00;;;;9695869;30;20215;-79
2023/03/08 09:55:30;;;;;;;12.17;7.27;;;;;2.50;98616.00;;;;9697582;30;20214;-79
2023/03/08 10:00:36;;;;;;;12.03;8.00;;;;;2.70;98614.00;;;;9682242;30;20310;-79
2023/03/08 10:05:50;;;;;;;11.43;8.47;;;;;2.70;98621.00;;;;9682017;30;20202;-81
2023/03/08 10:11:01;;;;;;;13.67;9.07;;;;;3.10;98613.00;;;;9678528;30;20233;-79
2023/03/08 10:16:20;;;;;;;13.77;9.53;;;;;3.10;98608.00;;;;9692145;30;20210;-79
2023/03/08 10:21:25;;;;;;;14.93;9.70;;;;;3.20;98616.00;;;;9678283;30;20219;-79
2023/03/08 10:26:28;;;;;;;14.63;10.10;;;;;3.30;98606.00;;;;9705966;30;20207;-78
2023/03/08 10:31:32;;;;;;;13.40;9.20;;;;;3.00;98600.00;;;;9642511;30;20196;-79
2023/03/08 10:36:46;;;;;;;15.17;11.10;;;;;3.20;98600.00;;;;9684329;30;20265;-79
2023/03/08 10:41:56;;;;;;;15.20;10.53;;;;;3.20;98602.00;;;;9672968;30;20307;-79
2023/03/08 10:46:58;;;;;;;16.87;11.70;;;;;3.20;98598.00;;;;9669060;30;20207;-79
2023/03/08 10:52:01;;;;;;;19.87;12.47;;;;;3.20;98595.00;;;;9677528;30;20202;-79
2023/03/08 10:57:03;;;;;;;17.73;11.57;;;;;3.20;98593.00;;;;9655792;30;20214;-79
2023/03/08 11:02:11;;;;;;;18.67;12.47;;;;;3.30;98595.00;;;;9719416;30;20243;-79
2023/03/08 11:07:23;;;;;;;19.13;12.67;;;;;3.10;98608.00;;;;9693098;30;20242;-79
2023/03/08 11:12:25;;;;;;;20.40;13.60;;;;;3.10;98594.00;;;;9711657;30;20199;-78
2023/03/08 11:17:34;;;;;;;21.33;14.77;;;;;3.40;98578.00;;;;9676319;30;20207;-78
2023/03/08 11:22:59;;;;;;;21.43;14.83;;;;;3.70;98578.00;;;;9687678;30;20775;-78
2023/03/08 11:28:43;;;;;;;24.10;16.33;;;;;4.50;98571.00;;;;9689214;30;20719;-78
2023/03/08 11:33:57;;;;;;;25.60;17.23;;;;;4.60;98577.00;;;;9672828;30;20237;-78
2023/03/08 11:39:05;;;;;;;21.90;16.10;;;;;4.50;98569.00;;;;9677354;30;20207;-78
2023/03/08 11:44:27;;;;;;;23.00;16.37;;;;;4.50;98578.00;;;;9719641;30;20300;-78
2023/03/08 11:49:54;;;;;;;23.03;16.67;;;;;4.20;98571.00;;;;9715358;30;20238;-78
2023/03/08 11:54:56;;;;;;;21.43;16.07;;;;;3.50;98589.00;;;;9693979;30;20631;-78
2023/03/08 12:00:11;;;;;;;23.93;16.13;;;;;3.60;98582.00;;;;9666453;30;20691;-78
2023/03/08 12:05:27;;;;;;;24.30;17.83;;;;;3.40;98581.00;;;;9672860;30;20211;-78
2023/03/08 12:10:43;;;;;;;24.03;16.67;;;;;3.40;98572.00;;;;9675520;30;20215;-78
2023/03/08 12:15:52;;;;;;;29.87;18.77;;;;;3.70;98570.00;;;;9687596;30;20627;-78
2023/03/08 12:21:21;;;;;;;22.93;16.70;;;;;3.40;98579.00;;;;9693336;30;20219;-79
2023/03/08 12:26:36;;;;;;;25.67;18.03;;;;;3.50;98579.00;;;;9653138;30;20222;-78
2023/03/08 12:31:46;;;;;;;25.00;17.90;;;;;3.70;98577.00;;;;9688485;30;20206;-79
2023/03/08 12:36:48;;;;;;;26.27;17.70;;;;;3.60;98564.00;;;;9695130;30;20254;-78
2023/03/08 12:42:08;;;;;;;25.67;18.77;;;;;3.50;98565.00;;;;9680238;30;20223;-78
2023/03/08 12:47:10;;;;;;;25.17;18.37;;;;;3.60;98556.00;;;;9709028;30;20261;-79
2023/03/08 12:52:36;;;;;;;23.67;17.43;;;;;3.50;98558.00;;;;9709614;30;20211;-78
2023/03/08 12:57:47;;;;;;;27.83;19.13;;;;;3.50;98568.00;;;;9709300;30;20568;-78
2023/03/08 13:03:11;;;;;;;28.10;18.93;;;;;3.50;98569.00;;;;9693490;30;20257;-78
2023/03/08 13:08:13;;;;;;;28.27;19.23;;;;;3.70;98567.00;;;;9693492;30;20229;-78
2023/03/08 13:13:33;;;;;;;28.80;19.20;;;;;3.80;98559.00;;;;9694292;30;20231;-78
2023/03/08 13:18:46;;;;;;;25.37;18.07;;;;;3.70;98562.00;;;;9694719;30;20207;-78
2023/03/08 13:23:55;;;;;;;26.27;19.10;;;;;3.70;98567.00;;;;9692879;30;20219;-79
2023/03/08 13:28:57;;;;;;;26.07;18.23;;;;;3.70;98548.00;;;;9695828;30;20217;-79
2023/03/08 13:34:00;;;;;;;26.97;18.37;;;;;3.70;98557.00;;;;9701242;30;20207;-79
2023/03/08 13:39:06;;;;;;;27.70;19.03;;;;;3.50;98560.00;;;;9698341;30;20211;-79
2023/03/08 13:44:22;;;;;;;27.03;18.60;;;;;3.50;98566.00;;;;9695646;30;20218;-79
2023/03/08 13:49:29;;;;;;;26.37;18.13;;;;;3.50;98572.00;;;;9693708;30;20212;-78
2023/03/08 13:54:40;;;;;;;27.23;18.70;;;;;3.50;98565.00;;;;9703883;30;20214;-78
2023/03/08 13:59:51;;;;;;;26.97;17.63;;;;;3.60;98571.00;;;;9692167;30;20633;-78
2023/03/08 14:04:54;;;;;;;24.57;17.70;;;;;3.50;98581.00;;;;9692108;30;20269;-78
2023/03/08 14:09:57;;;;;;;26.50;17.63;;;;;3.50;98585.00;;;;9676582;30;20237;-78
2023/03/08 14:15:04;;;;;;;24.17;17.03;;;;;3.50;98589.00;;;;9670010;30;20311;-78
2023/03/08 14:20:21;;;;;;;26.40;18.57;;;;;3.40;98579.00;;;;9662115;30;20852;-78
2023/03/08 14:25:30;;;;;;;29.77;20.83;;;;;3.40;98587.00;;;;9661597;30;20313;-78
2023/03/08 14:30:31;;;;;;;35.00;23.53;;;;;3.40;98577.00;;;;9689532;30;20222;-78
2023/03/08 14:35:40;;;;;;;34.07;23.50;;;;;3.30;98581.00;;;;9689447;30;20207;-78
2023/03/08 14:40:48;;;;;;;34.83;21.83;;;;;3.20;98579.00;;;;9689162;30;20254;-78
2023/03/08 14:45:55;;;;;;;37.23;23.03;;;;;3.10;98580.00;;;;9693348;30;20733;-78
2023/03/08 14:50:58;;;;;;;41.50;24.57;;;;;3.00;98590.00;;;;9711190;30;20591;-78
2023/03/08 14:56:15;;;;;;;42.00;24.50;;;;;2.90;98584.00;;;;9673365;30;20212;-78
2023/03/08 15:01:32;;;;;;;43.83;25.50;;;;;2.80;98592.00;;;;9682394;30;20312;-78
2023/03/08 15:06:38;;;;;;;46.57;28.47;;;;;2.80;98572.00;;;;9696524;30;20604;-78
2023/03/08 15:11:41;;;;;;;45.67;26.57;;;;;2.80;98570.00;;;;9710787;30;20685;-78
2023/03/08 15:16:43;;;;;;;48.93;27.03;;;;;2.70;98563.00;;;;9712604;30;20206;-78
2023/03/08 15:21:46;;;;;;;49.83;29.37;;;;;2.70;98560.00;;;;9723906;30;20268;-78
2023/03/08 15:26:48;;;;;;;51.90;30.17;;;;;2.80;98540.00;;;;9696183;30;20202;-78
2023/03/08 15:31:50;;;;;;;50.83;28.77;;;;;2.70;98539.00;;;;9694734;30;20261;-78
2023/03/08 15:36:53;;;;;;;50.17;28.30;;;;;2.70;98535.00;;;;9694391;30;20809;-78
2023/03/08 15:41:54;;;;;;;49.63;27.53;;;;;2.60;98534.00;;;;9695586;30;20557;-78
2023/03/08 15:46:56;;;;;;;53.87;29.17;;;;;2.70;98526.00;;;;9694927;30;20563;-78
2023/03/08 15:51:59;;;;;;;50.23;27.80;;;;;2.60;98556.00;;;;9680599;30;20210;-78
2023/03/08 15:57:00;;;;;;;52.27;28.43;;;;;2.70;98557.00;;;;9722230;30;20239;-78
2023/03/08 16:02:02;;;;;;;56.77;29.77;;;;;2.60;98556.00;;;;9694457;30;20219;-78
2023/03/08 16:07:04;;;;;;;53.13;28.03;;;;;2.60;98550.00;;;;9699183;30;20239;-78
2023/03/08 16:12:07;;;;;;;62.73;30.70;;;;;2.60;98539.00;;;;9689344;30;20263;-78
2023/03/08 16:17:09;;;;;;;56.17;29.97;;;;;2.60;98535.00;;;;9722638;30;20207;-78
2023/03/08 16:22:11;;;;;;;62.90;31.50;;;;;2.60;98538.00;;;;9692604;30;20583;-77
2023/03/08 16:27:14;;;;;;;60.37;30.97;;;;;2.60;98541.00;;;;9707098;30;20241;-78
2023/03/08 16:32:17;;;;;;;62.33;32.07;;;;;2.50;98542.00;;;;9707224;30;20196;-78
2023/03/08 16:37:20;;;;;;;53.60;27.97;;;;;2.50;98539.00;;;;9706321;30;20615;-78
2023/03/08 16:42:22;;;;;;;52.23;29.17;;;;;2.50;98555.00;;;;9674355;30;20216;-78
2023/03/08 16:47:25;;;;;;;60.23;29.37;;;;;2.50;98557.00;;;;9678212;30;20661;-78
2023/03/08 16:52:27;;;;;;;54.87;30.27;;;;;2.50;98520.00;;;;9701147;30;20845;-78
2023/03/08 16:57:29;;;;;;;61.33;31.53;;;;;2.50;98498.00;;;;9692293;30;20221;-79
2023/03/08 17:02:31;;;;;;;60.17;30.67;;;;;2.50;98489.00;;;;9706760;30;20219;-78
2023/03/08 17:07:33;;;;;;;55.60;29.03;;;;;2.40;98496.00;;;;9706330;30;20271;-78
2023/03/08 17:12:35;;;;;;;63.37;31.53;;;;;2.40;98490.00;;;;9693276;30;20738;-78
2023/03/08 17:17:38;;;;;;;53.03;25.83;;;;;2.30;98496.00;;;;9681066;30;20283;-78
2023/03/08 17:22:40;;;;;;;51.80;26.87;;;;;2.30;98502.00;;;;9684703;30;20240;-78
2023/03/08 17:27:42;;;;;;;51.90;24.63;;;;;2.30;98486.00;;;;9683371;30;20210;-78
2023/03/08 17:32:44;;;;;;;53.40;26.90;;;;;2.20;98485.00;;;;9692105;30;20294;-78
2023/03/08 17:37:46;;;;;;;53.53;26.80;;;;;2.20;98491.00;;;;9680951;30;20211;-78
2023/03/08 17:42:48;;;;;;;47.93;26.63;;;;;2.20;98482.00;;;;9692704;30;20215;-78
2023/03/08 17:47:50;;;;;;;46.13;26.27;;;;;2.10;98486.00;;;;9721249;30;20717;-78
2023/03/08 17:52:52;;;;;;;50.07;24.80;;;;;2.10;98497.00;;;;9705885;30;20308;-78
2023/03/08 17:57:53;;;;;;;53.73;26.93;;;;;2.10;98486.00;;;;9705594;30;20203;-78
2023/03/08 18:02:57;;;;;;;53.27;26.07;;;;;2.20;98483.00;;;;9690852;30;20215;-78
2023/03/08 18:07:59;;;;;;;53.23;26.00;;;;;2.10;98481.00;;;;9675530;30;20748;-78
2023/03/08 18:13:01;;;;;;;53.13;26.93;;;;;2.20;98480.00;;;;9675296;30;20203;-78
2023/03/08 18:18:03;;;;;;;51.43;25.53;;;;;2.20;98494.00;;;;9685043;30;20202;-78
2023/03/08 18:23:06;;;;;;;50.30;26.50;;;;;2.20;98500.00;;;;9726895;30;20222;-78
2023/03/08 18:28:08;;;;;;;45.80;24.20;;;;;2.20;98494.00;;;;9690644;30;20725;-78
2023/03/08 18:33:10;;;;;;;51.60;25.80;;;;;2.20;98493.00;;;;9690746;30;20736;-78
2023/03/08 18:38:12;;;;;;;49.07;25.70;;;;;2.20;98490.00;;;;9676277;30;20203;-78
2023/03/08 18:43:14;;;;;;;57.57;28.50;;;;;2.20;98486.00;;;;9690181;30;20842;-78
2023/03/08 18:48:16;;;;;;;52.53;25.87;;;;;2.20;98491.00;;;;9704590;30;20332;-78
2023/03/08 18:53:18;;;;;;;63.43;27.60;;;;;2.20;98481.00;;;;9705137;30;20207;-78
2023/03/08 18:58:20;;;;;;;63.47;27.83;;;;;2.20;98496.00;;;;9677252;30;20199;-79
2023/03/08 19:03:23;;;;;;;56.10;27.07;;;;;2.20;98493.00;;;;9678249;30;20846;-78
2023/03/08 19:08:26;;;;;;;67.00;30.83;;;;;2.20;98495.00;;;;9691168;30;20242;-78
2023/03/08 19:13:28;;;;;;;60.50;27.90;;;;;2.20;98491.00;;;;9691443;30;20211;-79
2023/03/08 19:18:30;;;;;;;62.70;28.67;;;;;2.20;98489.00;;;;9676035;30;20234;-79
2023/03/08 19:23:32;;;;;;;66.33;28.93;;;;;2.20;98475.00;;;;9679015;30;20227;-78
2023/03/08 19:28:34;;;;;;;62.83;29.17;;;;;2.20;98452.00;;;;9693802;30;20298;-79
2023/03/08 19:33:36;;;;;;;56.30;27.80;;;;;2.20;98457.00;;;;9697905;30;20203;-79
2023/03/08 19:38:38;;;;;;;70.07;30.47;;;;;2.20;98433.00;;;;9714447;30;20207;-78
2023/03/08 19:43:41;;;;;;;65.00;29.27;;;;;2.20;98432.00;;;;9689465;30;20293;-78
2023/03/08 19:48:44;;;;;;;68.13;29.70;;;;;2.20;98444.00;;;;9711113;30;20233;-78
2023/03/08 19:53:46;;;;;;;60.07;28.83;;;;;2.30;98440.00;;;;9709684;30;20294;-78
2023/03/08 19:58:48;;;;;;;65.70;29.20;;;;;2.30;98421.00;;;;9681459;30;20199;-78
2023/03/08 20:03:51;;;;;;;62.87;28.57;;;;;2.30;98433.00;;;;9694884;30;20262;-78
2023/03/08 20:08:55;;;;;;;65.63;28.23;;;;;2.30;98437.00;;;;9680465;30;20273;-78
2023/03/08 20:13:58;;;;;;;62.53;27.47;;;;;2.30;98450.00;;;;9692218;30;20207;-78
2023/03/08 20:19:00;;;;;;;69.67;29.10;;;;;2.30;98457.00;;;;9726128;30;20203;-78
2023/03/08 20:24:02;;;;;;;66.93;29.43;;;;;2.30;98443.00;;;;9711327;30;20226;-78
2023/03/08 20:29:04;;;;;;;68.27;29.57;;;;;2.30;98437.00;;;;9681479;30;20821;-78
2023/03/08 20:34:06;;;;;;;70.73;30.47;;;;;2.30;98427.00;;;;9696102;30;20203;-78
2023/03/08 20:39:09;;;;;;;59.20;27.57;;;;;2.30;98425.00;;;;9673835;30;20538;-78
2023/03/08 20:44:11;;;;;;;66.17;28.70;;;;;2.30;98415.00;;;;9704908;30;20215;-78
2023/03/08 20:49:15;;;;;;;64.17;27.37;;;;;2.30;98411.00;;;;9722688;30;20240;-78
2023/03/08 20:54:17;;;;;;;65.57;29.40;;;;;2.30;98415.00;;;;9694948;30;20730;-78
2023/03/08 20:59:23;;;;;;;68.20;29.50;;;;;2.30;98417.00;;;;9704027;30;20203;-78
2023/03/08 21:04:25;;;;;;;70.27;30.73;;;;;2.30;98409.00;;;;9673732;30;20220;-79
2023/03/08 21:09:27;;;;;;;71.17;30.00;;;;;2.40;98407.00;;;;9705061;30;20231;-80
2023/03/08 21:14:29;;;;;;;71.83;30.47;;;;;2.40;98411.00;;;;9685251;30;20211;-79
2023/03/08 21:19:34;;;;;;;73.93;31.57;;;;;2.40;98399.00;;;;9720545;30;20894;-79
2023/03/08 21:24:36;;;;;;;72.37;31.53;;;;;2.40;98408.00;;;;9694075;30;20306;-78
2023/03/08 21:29:38;;;;;;;60.83;28.80;;;;;2.40;98393.00;;;;9697401;30;20210;-79
2023/03/08 21:34:40;;;;;;;77.00;32.77;;;;;2.50;98370.00;;;;9689592;30;20214;-79
2023/03/08 21:39:42;;;;;;;78.47;33.43;;;;;2.50;98378.00;;;;9665343;30;20210;-79
2023/03/08 21:44:44;;;;;;;70.73;30.87;;;;;2.50;98381.00;;;;9680012;30;20258;-80
2023/03/08 21:49:46;;;;;;;71.97;30.93;;;;;2.50;98378.00;;;;9672172;30;20222;-80
2023/03/08 21:54:48;;;;;;;68.07;29.87;;;;;2.50;98377.00;;;;9679008;30;20310;-80
2023/03/08 21:59:50;;;;;;;73.87;31.03;;;;;2.50;98376.00;;;;9658634;30;20203;-80
2023/03/08 22:04:52;;;;;;;71.60;32.77;;;;;2.40;98335.00;;;;9702882;30;20918;-81
2023/03/08 22:09:54;;;;;;;65.57;27.50;;;;;2.40;98367.00;;;;9669792;30;20316;-80
2023/03/08 22:14:56;;;;;;;60.47;27.90;;;;;2.50;98353.00;;;;9719048;30;20195;-81
2023/03/08 22:19:58;;;;;;;74.33;29.33;;;;;2.50;98336.00;;;;9685347;30;20203;-81
2023/03/08 22:25:00;;;;;;;55.07;24.77;;;;;2.50;98364.00;;;;9711542;30;20242;-80
2023/03/08 22:30:09;;;;;;;59.80;24.93;;;;;2.50;98395.00;;;;9713831;30;21028;-81
2023/03/08 22:35:11;;;;;;;50.03;23.03;;;;;2.40;98391.00;;;;9728864;30;20532;-81
2023/03/08 22:40:14;;;;;;;54.90;24.87;;;;;2.40;98370.00;;;;9714117;30;20211;-82
2023/03/08 22:45:16;;;;;;;50.83;22.37;;;;;2.50;98385.00;;;;9700271;30;20218;-81
2023/03/08 22:50:17;;;;;;;50.00;21.97;;;;;2.50;98387.00;;;;9700753;30;20231;-81
2023/03/08 22:55:19;;;;;;;55.47;24.80;;;;;2.40;98381.00;;;;9695979;30;20637;-80
2023/03/08 23:00:22;;;;;;;47.33;22.80;;;;;2.40;98394.00;;;;9710551;30;20716;-80
2023/03/08 23:05:23;;;;;;;48.53;21.40;;;;;2.40;98385.00;;;;9682801;30;20227;-80
2023/03/08 23:10:26;;;;;;;48.20;21.60;;;;;2.40;98395.00;;;;9686724;30;20660;-80
2023/03/08 23:15:29;;;;;;;52.13;22.00;;;;;2.30;98392.00;;;;9701886;30;20339;-79
2023/03/08 23:20:32;;;;;;;49.37;21.43;;;;;2.30;98403.00;;;;9699176;30;20233;-79
2023/03/08 23:25:38;;;;;;;47.70;21.73;;;;;2.30;98393.00;;;;9702203;30;20227;-79
2023/03/08 23:30:41;;;;;;;47.23;21.37;;;;;2.30;98395.00;;;;9694932;30;20211;-79
2023/03/08 23:35:47;;;;;;;49.13;22.13;;;;;2.30;98396.00;;;;9705965;30;20343;-80
2023/03/08 23:40:49;;;;;;;52.97;23.50;;;;;2.30;98390.00;;;;9693232;30;20206;-80
2023/03/08 23:45:51;;;;;;;53.90;24.13;;;;;2.30;98374.00;;;;9683932;30;20635;-80
2023/03/08 23:50:53;;;;;;;53.47;21.73;;;;;2.20;98397.00;;;;9688415;30;20305;-79
2023/03/08 23:55:55;;;;;;;55.03;23.07;;;;;2.30;98415.00;;;;9715456;30;20237;-79
